createdAt,value
2023-02-12T00:02:18.214Z,2.71
2023-02-12T00:07:42.987Z,2.75
2023-02-12T00:10:12.390Z,2.76
2023-02-12T00:12:40.978Z,2.82
2023-02-12T00:15:10.331Z,2.78
2023-02-12T00:17:38.780Z,2.75
2023-02-12T00:20:10.046Z,2.75
2023-02-12T00:22:38.730Z,2.78
2023-02-12T00:25:08.464Z,2.80
2023-02-12T00:28:02.373Z,2.77
2023-02-12T00:30:31.456Z,2.74
2023-02-12T00:33:00.114Z,2.73
2023-02-12T00:35:30.269Z,2.81
2023-02-12T00:37:59.480Z,2.76
2023-02-12T00:40:28.903Z,2.78
2023-02-12T00:42:57.467Z,2.80
2023-02-12T00:45:25.897Z,2.83
2023-02-12T00:47:54.526Z,2.84
2023-02-12T00:50:23.987Z,2.80
2023-02-12T00:52:54.874Z,2.78
2023-02-12T00:55:23.492Z,2.79
2023-02-12T00:57:52.767Z,2.87
2023-02-12T01:00:22.156Z,2.82
2023-02-12T01:02:50.988Z,2.77
2023-02-12T01:05:21.129Z,2.77
2023-02-12T01:07:51.804Z,2.78
2023-02-12T01:10:22.729Z,2.81
2023-02-12T01:12:51.903Z,2.79
2023-02-12T01:15:21.746Z,2.85
2023-02-12T01:17:50.419Z,2.79
2023-02-12T01:20:29.258Z,2.77
2023-02-12T01:22:57.734Z,2.79
2023-02-12T01:25:27.873Z,2.76
2023-02-12T01:27:57.360Z,2.80
2023-02-12T01:30:26.274Z,2.92
2023-02-12T01:32:56.835Z,2.83
2023-02-12T01:35:25.499Z,2.87
2023-02-12T01:37:55.721Z,2.86
2023-02-12T01:40:25.449Z,2.86
2023-02-12T01:42:55.551Z,2.87
2023-02-12T01:45:47.121Z,2.92
2023-02-12T01:48:17.240Z,2.92
2023-02-12T01:50:48.056Z,2.91
2023-02-12T01:53:20.595Z,2.91
2023-02-12T01:55:50.628Z,2.90
2023-02-12T01:58:20.886Z,2.92
2023-02-12T02:00:49.858Z,2.89
2023-02-12T02:03:18.944Z,2.92
2023-02-12T02:05:54.294Z,2.88
2023-02-12T02:08:23.079Z,2.86
2023-02-12T02:10:51.645Z,2.83
2023-02-12T02:13:39.450Z,2.84
2023-02-12T02:16:13.751Z,2.79
2023-02-12T02:18:45.832Z,2.78
2023-02-12T02:21:47.453Z,2.72
2023-02-12T02:24:55.751Z,2.67
2023-02-12T02:27:32.948Z,2.67
2023-02-12T02:30:25.793Z,2.70
2023-02-12T02:33:11.795Z,2.70
2023-02-12T02:35:43.874Z,2.68
2023-02-12T02:38:23.081Z,2.66
2023-02-12T02:40:57.105Z,2.62
2023-02-12T02:43:29.867Z,2.62
2023-02-12T02:46:03.171Z,2.62
2023-02-12T02:48:37.630Z,2.65
2023-02-12T02:51:08.501Z,2.66
2023-02-12T02:53:40.300Z,2.64
2023-02-12T02:56:10.586Z,2.64
2023-02-12T02:58:49.951Z,2.62
2023-02-12T03:01:25.901Z,2.65
2023-02-12T03:03:57.793Z,2.68
2023-02-12T03:06:30.081Z,2.70
2023-02-12T03:09:02.269Z,2.71
2023-02-12T03:11:32.118Z,2.69
2023-02-12T03:14:06.032Z,2.75
2023-02-12T03:16:40.915Z,2.73
2023-02-12T03:19:14.057Z,2.72
2023-02-12T03:21:47.580Z,2.70
2023-02-12T03:24:20.687Z,2.71
2023-02-12T03:26:53.058Z,2.69
2023-02-12T03:29:21.887Z,2.67
2023-02-12T03:32:01.577Z,2.67
2023-02-12T03:34:50.652Z,2.67
2023-02-12T03:37:23.106Z,2.70
2023-02-12T03:39:56.466Z,2.67
2023-02-12T03:42:34.206Z,2.65
2023-02-12T03:45:06.740Z,2.59
2023-02-12T03:47:44.780Z,2.63
2023-02-12T03:50:16.439Z,2.57
2023-02-12T03:52:45.637Z,2.64
2023-02-12T03:55:32.862Z,2.55
2023-02-12T03:58:03.153Z,2.54
2023-02-12T04:00:37.595Z,2.52
2023-02-12T04:03:09.035Z,2.50
2023-02-12T04:05:37.952Z,2.52
2023-02-12T04:08:09.400Z,2.51
2023-02-12T04:10:44.190Z,2.47
2023-02-12T04:13:19.630Z,2.46
2023-02-12T04:16:04.286Z,2.50
2023-02-12T04:18:46.220Z,2.48
2023-02-12T04:21:26.340Z,2.51
2023-02-12T04:24:00.591Z,2.50
2023-02-12T04:26:37.497Z,2.50
2023-02-12T04:29:14.605Z,2.51
2023-02-12T04:31:49.081Z,2.51
2023-02-12T04:34:22.801Z,2.56
2023-02-12T04:36:54.467Z,2.51
2023-02-12T04:39:27.291Z,2.50
2023-02-12T04:41:55.881Z,2.48
2023-02-12T04:44:31.022Z,2.40
2023-02-12T04:47:01.389Z,2.37
2023-02-12T04:49:31.753Z,2.39
2023-02-12T04:52:00.500Z,2.41
2023-02-12T04:54:29.450Z,2.41
2023-02-12T04:56:57.900Z,2.37
2023-02-12T04:59:26.785Z,2.35
2023-02-12T05:01:57.904Z,2.34
2023-02-12T05:04:26.800Z,2.25
2023-02-12T05:06:57.233Z,2.23
2023-02-12T05:09:25.917Z,2.17
2023-02-12T05:11:54.321Z,2.11
2023-02-12T05:14:26.879Z,2.09
2023-02-12T05:16:55.431Z,2.10
2023-02-12T05:19:24.190Z,2.13
2023-02-12T05:21:55.081Z,2.14
2023-02-12T05:24:26.173Z,2.14
2023-02-12T05:26:54.732Z,2.14
2023-02-12T05:29:23.750Z,2.13
2023-02-12T05:31:52.383Z,2.10
2023-02-12T05:34:21.295Z,2.03
2023-02-12T05:36:49.800Z,1.95
2023-02-12T05:39:18.655Z,1.91
2023-02-12T05:41:48.831Z,1.99
2023-02-12T05:44:17.430Z,2.03
2023-02-12T05:46:45.937Z,2.06
2023-02-12T05:49:14.677Z,2.04
2023-02-12T05:51:44.210Z,2.02
2023-02-12T05:54:12.909Z,2.08
2023-02-12T05:56:45.526Z,2.06
2023-02-12T05:59:18.218Z,2.15
2023-02-12T06:01:47.825Z,2.07
2023-02-12T06:04:17.689Z,1.98
2023-02-12T06:06:46.736Z,1.90
2023-02-12T06:09:15.748Z,1.85
2023-02-12T06:11:44.922Z,1.84
2023-02-12T06:14:17.063Z,1.85
2023-02-12T06:16:47.199Z,1.87
2023-02-12T06:19:15.960Z,1.86
2023-02-12T06:21:47.408Z,1.86
2023-02-12T06:24:17.766Z,1.84
2023-02-12T06:26:46.608Z,1.76
2023-02-12T06:29:16.597Z,1.65
2023-02-12T06:31:47.466Z,1.57
2023-02-12T06:34:18.468Z,1.47
2023-02-12T06:36:49.958Z,1.46
2023-02-12T06:39:19.368Z,1.41
2023-02-12T06:42:12.554Z,1.38
2023-02-12T06:44:42.810Z,1.34
2023-02-12T06:47:11.477Z,1.34
2023-02-12T06:49:40.009Z,1.37
2023-02-12T06:52:08.774Z,1.38
2023-02-12T06:54:37.646Z,1.37
2023-02-12T06:57:06.625Z,1.34
2023-02-12T06:59:35.297Z,1.38
2023-02-12T07:02:07.568Z,1.45
2023-02-12T07:04:36.120Z,1.58
2023-02-12T07:07:05.752Z,1.65
2023-02-12T07:09:34.421Z,1.76
2023-02-12T07:12:02.857Z,1.88
2023-02-12T07:14:31.531Z,1.96
2023-02-12T07:17:03.980Z,2.03
2023-02-12T07:19:34.061Z,2.06
2023-02-12T07:22:02.933Z,2.05
2023-02-12T07:24:31.889Z,2.07
2023-02-12T07:27:00.838Z,2.07
2023-02-12T07:29:29.601Z,2.06
2023-02-12T07:31:59.502Z,2.07
2023-02-12T07:34:28.066Z,2.13
2023-02-12T07:36:58.190Z,2.15
2023-02-12T07:39:35.348Z,2.23
2023-02-12T07:42:04.318Z,2.26
2023-02-12T07:44:34.501Z,2.29
2023-02-12T07:47:03.990Z,2.33
2023-02-12T07:49:32.436Z,2.43
2023-02-12T07:52:02.590Z,2.47
2023-02-12T07:54:31.254Z,2.50
2023-02-12T07:57:00.972Z,2.48
2023-02-12T07:59:30.210Z,2.43
2023-02-12T08:02:01.359Z,2.43
2023-02-12T08:04:33.256Z,2.40
2023-02-12T08:07:03.850Z,2.44
2023-02-12T08:09:32.482Z,2.52
2023-02-12T08:12:00.802Z,2.58
2023-02-12T08:14:30.054Z,2.62
2023-02-12T08:16:58.743Z,2.66
2023-02-12T08:19:27.687Z,2.69
2023-02-12T08:21:57.509Z,2.74
2023-02-12T08:24:27.737Z,2.77
2023-02-12T08:26:56.514Z,2.87
2023-02-12T08:29:27.364Z,3.00
2023-02-12T08:31:59.502Z,3.12
2023-02-12T08:34:30.036Z,3.22
2023-02-12T08:36:59.131Z,3.30
2023-02-12T08:39:30.907Z,3.35
2023-02-12T08:43:08.972Z,3.22
2023-02-12T08:45:37.517Z,3.28
2023-02-12T08:48:06.251Z,3.34
2023-02-12T08:50:35.835Z,3.43
2023-02-12T08:53:04.436Z,3.43
2023-02-12T08:55:34.194Z,3.39
2023-02-12T08:58:04.059Z,3.44
2023-02-12T09:00:32.848Z,3.52
2023-02-12T09:03:02.345Z,3.58
2023-02-12T09:05:30.786Z,3.59
2023-02-12T09:08:02.290Z,3.64
2023-02-12T09:10:31.063Z,3.67
2023-02-12T09:13:01.010Z,3.69
2023-02-12T09:15:30.163Z,3.64
2023-02-12T09:17:59.252Z,3.61
2023-02-12T09:20:29.315Z,3.66
2023-02-12T09:22:58.086Z,3.73
2023-02-12T09:25:29.028Z,3.69
2023-02-12T09:28:01.597Z,3.70
2023-02-12T09:30:30.449Z,3.77
2023-02-12T09:32:59.273Z,3.65
2023-02-12T09:35:30.320Z,3.55
2023-02-12T09:37:59.038Z,3.52
2023-02-12T09:40:35.419Z,3.59
2023-02-12T09:43:18.588Z,3.58
2023-02-12T09:45:51.863Z,3.66
2023-02-12T09:48:32.860Z,3.56
2023-02-12T09:51:02.858Z,3.58
2023-02-12T09:53:33.049Z,3.58
2023-02-12T09:56:01.995Z,3.44
2023-02-12T09:58:35.910Z,3.42
2023-02-12T10:01:17.020Z,3.31
2023-02-12T10:03:46.391Z,3.33
2023-02-12T10:06:17.046Z,3.28
2023-02-12T10:09:12.456Z,3.32
2023-02-12T10:11:48.919Z,3.33
2023-02-12T10:14:31.641Z,3.30
2023-02-12T10:17:03.666Z,3.36
2023-02-12T10:19:51.831Z,3.56
2023-02-12T10:22:26.428Z,3.55
2023-02-12T10:25:05.661Z,3.49
2023-02-12T10:27:41.113Z,3.52
2023-02-12T10:30:21.816Z,3.59
2023-02-12T10:32:53.671Z,3.77
2023-02-12T10:35:24.662Z,3.77
2023-02-12T10:37:58.094Z,3.69
2023-02-12T10:40:30.177Z,3.78
2023-02-12T10:43:01.164Z,3.83
2023-02-12T10:45:35.804Z,3.73
2023-02-12T10:48:09.118Z,3.55
2023-02-12T10:50:52.825Z,3.49
2023-02-12T10:53:24.054Z,3.38
2023-02-12T10:56:14.299Z,3.53
2023-02-12T10:58:44.501Z,3.50
2023-02-12T11:01:19.830Z,3.66
2023-02-12T11:03:51.378Z,3.58
2023-02-12T11:06:26.039Z,3.55
2023-02-12T11:08:54.890Z,3.37
2023-02-12T11:11:26.475Z,3.39
2023-02-12T11:13:57.078Z,3.37
2023-02-12T11:16:32.192Z,3.43
2023-02-12T11:19:02.635Z,3.52
2023-02-12T11:21:32.540Z,3.61
2023-02-12T11:24:22.952Z,3.75
2023-02-12T11:26:52.043Z,3.83
2023-02-12T11:29:25.017Z,3.74
2023-02-12T11:32:08.834Z,3.75
2023-02-12T11:34:38.007Z,3.76
2023-02-12T11:37:17.918Z,3.76
2023-02-12T11:40:00.241Z,3.74
2023-02-12T11:42:31.684Z,3.76
2023-02-12T11:45:01.621Z,3.81
2023-02-12T11:47:34.058Z,3.91
2023-02-12T11:50:07.500Z,3.86
2023-02-12T11:52:37.822Z,3.86
2023-02-12T11:55:10.156Z,3.86
2023-02-12T11:57:39.876Z,3.86
2023-02-12T12:00:18.257Z,3.89
2023-02-12T12:02:54.071Z,3.76
2023-02-12T12:05:24.361Z,3.79
2023-02-12T12:08:04.757Z,3.76
2023-02-12T12:10:37.554Z,3.68
2023-02-12T12:13:10.821Z,3.75
2023-02-12T12:16:01.067Z,3.80
2023-02-12T12:19:00.332Z,3.79
2023-02-12T12:21:32.330Z,3.75
2023-02-12T12:24:02.930Z,3.86
2023-02-12T12:26:34.960Z,3.86
2023-02-12T12:29:07.496Z,3.93
2023-02-12T12:31:38.271Z,4.03
2023-02-12T12:34:10.998Z,4.11
2023-02-12T12:37:04.121Z,3.95
2023-02-12T12:39:37.835Z,4.00
2023-02-12T12:42:39.098Z,4.13
2023-02-12T12:45:22.273Z,4.35
2023-02-12T12:48:03.912Z,4.19
2023-02-12T12:50:51.659Z,4.26
2023-02-12T12:53:33.702Z,4.37
2023-02-12T12:56:14.541Z,4.29
2023-02-12T12:59:32.551Z,4.48
2023-02-12T13:02:51.101Z,4.48
2023-02-12T13:05:49.520Z,4.70
2023-02-12T13:08:32.002Z,4.75
2023-02-12T13:11:08.401Z,4.79
2023-02-12T13:13:38.962Z,4.49
2023-02-12T13:16:18.486Z,4.45
2023-02-12T13:19:03.445Z,4.29
2023-02-12T13:21:45.454Z,4.45
2023-02-12T13:24:22.807Z,4.39
2023-02-12T13:26:54.942Z,4.26
2023-02-12T13:29:27.277Z,4.36
2023-02-12T13:31:58.989Z,4.31
2023-02-12T13:34:30.016Z,4.27
2023-02-12T13:37:01.646Z,4.31
2023-02-12T13:39:34.397Z,4.28
2023-02-12T13:42:12.458Z,4.25
2023-02-12T13:44:51.334Z,4.25
2023-02-12T13:47:25.641Z,4.25
2023-02-12T13:49:57.851Z,4.24
2023-02-12T13:52:34.484Z,4.20
2023-02-12T13:55:16.371Z,4.23
2023-02-12T13:57:45.114Z,4.27
2023-02-12T14:00:46.930Z,4.39
2023-02-12T14:03:25.466Z,4.48
2023-02-12T14:06:10.282Z,4.58
2023-02-12T14:08:42.551Z,4.67
2023-02-12T14:11:13.783Z,4.69
2023-02-12T14:13:55.670Z,4.61
2023-02-12T14:16:45.042Z,4.54
2023-02-12T14:19:39.492Z,4.56
2023-02-12T14:22:15.436Z,4.50
2023-02-12T14:25:03.598Z,4.55
2023-02-12T14:27:46.849Z,4.51
2023-02-12T14:30:31.658Z,4.49
2023-02-12T14:33:12.281Z,4.41
2023-02-12T14:35:44.684Z,4.32
2023-02-12T14:38:58.037Z,4.26
2023-02-12T14:41:38.049Z,4.10
2023-02-12T14:44:42.601Z,4.00
2023-02-12T14:47:59.812Z,4.01
2023-02-12T14:50:50.664Z,4.03
2023-02-12T14:53:28.591Z,4.03
2023-02-12T14:55:58.573Z,4.07
2023-02-12T14:58:31.137Z,4.13
2023-02-12T15:01:27.482Z,4.11
2023-02-12T15:04:10.738Z,4.15
2023-02-12T15:06:41.569Z,4.21
2023-02-12T15:09:11.943Z,4.21
2023-02-12T15:11:46.263Z,4.21
2023-02-12T15:14:21.814Z,4.22
2023-02-12T15:16:55.986Z,4.25
2023-02-12T15:19:35.845Z,4.26
2023-02-12T15:22:06.127Z,4.28
2023-02-12T15:24:35.366Z,4.30
2023-02-12T15:27:04.637Z,4.33
2023-02-12T15:29:47.278Z,4.32
2023-02-12T15:32:21.357Z,4.27
2023-02-12T15:34:51.190Z,4.24
2023-02-12T15:37:24.076Z,4.23
2023-02-12T15:39:54.968Z,4.19
2023-02-12T15:42:29.122Z,4.20
2023-02-12T15:45:10.069Z,4.12
2023-02-12T15:47:39.168Z,4.04
2023-02-12T15:50:08.501Z,3.89
2023-02-12T15:52:39.853Z,3.80
2023-02-12T15:55:17.714Z,3.69
2023-02-12T15:57:47.443Z,3.62
2023-02-12T16:00:31.161Z,3.55
2023-02-12T16:02:59.874Z,3.45
2023-02-12T16:05:28.852Z,3.40
2023-02-12T16:08:22.998Z,3.36
2023-02-12T16:10:54.476Z,3.27
2023-02-12T16:13:30.525Z,3.24
2023-02-12T16:16:08.931Z,3.24
2023-02-12T16:18:44.672Z,3.23
2023-02-12T16:21:18.663Z,3.24
2023-02-12T16:23:47.861Z,3.21
2023-02-12T16:26:21.709Z,3.16
2023-02-12T16:28:52.472Z,3.08
2023-02-12T16:31:23.735Z,3.07
2023-02-12T16:33:53.573Z,3.07
2023-02-12T16:36:33.084Z,3.07
2023-02-12T16:39:03.709Z,3.02
2023-02-12T16:41:34.056Z,2.96
2023-02-12T16:44:31.926Z,2.94
2023-02-12T16:47:02.501Z,2.92
2023-02-12T16:49:31.038Z,2.88
2023-02-12T16:52:23.236Z,2.89
2023-02-12T16:54:51.895Z,2.88
2023-02-12T16:57:20.901Z,2.86
2023-02-12T16:59:50.170Z,2.85
2023-02-12T17:02:20.077Z,2.87
2023-02-12T17:04:48.874Z,2.84
2023-02-12T17:07:20.768Z,2.84
2023-02-12T17:09:59.050Z,2.78
2023-02-12T17:12:28.253Z,2.70
2023-02-12T17:14:57.192Z,2.65
2023-02-12T17:17:27.265Z,2.57
2023-02-12T17:19:55.750Z,2.58
2023-02-12T17:22:26.292Z,2.59
2023-02-12T17:24:54.872Z,2.59
2023-02-12T17:27:23.701Z,2.58
2023-02-12T17:30:01.776Z,2.60
2023-02-12T17:32:33.732Z,2.60
2023-02-12T17:35:02.657Z,2.56
2023-02-12T17:37:31.201Z,2.53
2023-02-12T17:40:01.123Z,2.56
2023-02-12T17:42:34.740Z,2.58
2023-02-12T17:45:03.796Z,2.59
2023-02-12T17:47:44.340Z,2.58
2023-02-12T17:50:15.181Z,2.59
2023-02-12T17:52:44.022Z,2.61
2023-02-12T17:55:17.704Z,2.54
2023-02-12T17:58:46.137Z,2.50
2023-02-12T18:01:17.956Z,2.49
2023-02-12T18:03:48.404Z,2.45
2023-02-12T18:06:23.617Z,2.43
2023-02-12T18:08:52.632Z,2.42
2023-02-12T18:11:21.505Z,2.42
2023-02-12T18:13:52.582Z,2.41
2023-02-12T18:16:25.102Z,2.41
2023-02-12T18:18:55.734Z,2.39
2023-02-12T18:21:24.634Z,2.39
2023-02-12T18:23:54.473Z,2.37
2023-02-12T18:26:23.224Z,2.36
2023-02-12T18:28:54.008Z,2.36
2023-02-12T18:31:22.743Z,2.37
2023-02-12T18:33:51.907Z,2.37
2023-02-12T18:36:22.987Z,2.38
2023-02-12T18:38:53.523Z,2.34
2023-02-12T18:41:25.167Z,2.31
2023-02-12T18:43:53.974Z,2.27
2023-02-12T18:46:25.243Z,2.31
2023-02-12T18:48:54.498Z,2.33
2023-02-12T18:51:27.470Z,2.35
2023-02-12T18:53:57.437Z,2.36
2023-02-12T18:56:26.069Z,2.36
2023-02-12T18:59:02.187Z,2.32
2023-02-12T19:01:31.033Z,2.32
2023-02-12T19:04:04.707Z,2.31
2023-02-12T19:06:36.007Z,2.25
2023-02-12T19:09:05.820Z,2.25
2023-02-12T19:11:34.168Z,2.27
2023-02-12T19:14:03.089Z,2.29
2023-02-12T19:16:33.691Z,2.30
2023-02-12T19:19:03.037Z,2.30
2023-02-12T19:21:35.480Z,2.33
2023-02-12T19:24:05.328Z,2.31
2023-02-12T19:26:35.882Z,2.30
2023-02-12T19:29:11.273Z,2.31
2023-02-12T19:31:42.212Z,2.31
2023-02-12T19:34:17.240Z,2.29
2023-02-12T19:36:48.241Z,2.28
2023-02-12T19:39:19.086Z,2.26
2023-02-12T19:41:52.723Z,2.11
2023-02-12T19:44:23.392Z,2.25
2023-02-12T19:46:55.277Z,2.18
2023-02-12T19:49:26.383Z,2.20
2023-02-12T19:51:56.663Z,2.21
2023-02-12T19:54:25.867Z,2.20
2023-02-12T19:56:55.435Z,2.19
2023-02-12T19:59:25.431Z,2.20
2023-02-12T20:01:54.247Z,2.21
2023-02-12T20:04:23.837Z,2.17
2023-02-12T20:06:52.523Z,2.16
2023-02-12T20:09:23.647Z,2.16
2023-02-12T20:11:55.736Z,2.14
2023-02-12T20:14:25.133Z,2.14
2023-02-12T20:16:56.893Z,2.13
2023-02-12T20:19:28.742Z,2.11
2023-02-12T20:21:58.466Z,2.11
2023-02-12T20:24:30.363Z,2.11
2023-02-12T20:27:00.611Z,2.11
2023-02-12T20:29:30.132Z,2.09
2023-02-12T20:31:58.880Z,2.05
2023-02-12T20:34:27.845Z,2.12
2023-02-12T20:36:56.735Z,2.11
2023-02-12T20:39:25.963Z,2.13
2023-02-12T20:41:56.016Z,2.16
2023-02-12T20:44:24.939Z,2.19
2023-02-12T20:46:57.097Z,2.17
2023-02-12T20:49:26.304Z,2.17
2023-02-12T20:51:54.862Z,2.13
2023-02-12T20:54:23.770Z,2.10
2023-02-12T20:56:53.025Z,2.13
2023-02-12T20:59:23.723Z,2.14
2023-02-12T21:01:52.451Z,2.15
2023-02-12T21:04:21.307Z,2.16
2023-02-12T21:06:52.464Z,2.10
2023-02-12T21:09:21.106Z,2.10
2023-02-12T21:11:50.068Z,2.10
2023-02-12T21:14:23.579Z,2.00
2023-02-12T21:16:57.481Z,2.04
2023-02-12T21:19:27.078Z,2.06
2023-02-12T21:21:57.699Z,2.08
2023-02-12T21:24:27.649Z,2.09
2023-02-12T21:26:57.581Z,2.10
2023-02-12T21:29:27.720Z,2.05
2023-02-12T21:31:58.055Z,2.06
2023-02-12T21:34:26.906Z,2.09
2023-02-12T21:36:56.609Z,2.08
2023-02-12T21:39:32.227Z,2.05
2023-02-12T21:42:03.034Z,2.05
2023-02-12T21:44:35.590Z,2.05
2023-02-12T21:47:07.806Z,2.04
2023-02-12T21:49:39.737Z,2.01
2023-02-12T21:52:08.432Z,2.01
2023-02-12T21:54:37.151Z,2.01
2023-02-12T21:57:08.011Z,2.02
2023-02-12T21:59:37.013Z,2.02
2023-02-12T22:02:07.597Z,1.99
2023-02-12T22:04:39.320Z,1.97
2023-02-12T22:07:08.532Z,1.97
2023-02-12T22:09:37.632Z,1.99
2023-02-12T22:12:06.848Z,2.04
2023-02-12T22:14:35.572Z,2.07
2023-02-12T22:17:07.446Z,2.08
2023-02-12T22:19:37.312Z,2.09
2023-02-12T22:22:08.083Z,2.12
2023-02-12T22:24:38.134Z,2.11
2023-02-12T22:27:39.206Z,2.08
2023-02-12T22:30:09.074Z,2.06
2023-02-12T22:32:37.815Z,2.07
2023-02-12T22:35:08.733Z,2.05
2023-02-12T22:37:37.596Z,1.77
2023-02-12T22:40:07.119Z,2.03
2023-02-12T22:42:36.704Z,2.05
2023-02-12T22:45:06.077Z,2.05
2023-02-12T22:47:35.505Z,2.04
2023-02-12T22:50:18.612Z,2.05
2023-02-12T22:52:47.685Z,2.03
2023-02-12T22:55:16.558Z,2.03
2023-02-12T22:57:45.043Z,2.04
2023-02-12T23:00:16.624Z,2.05
2023-02-12T23:02:45.485Z,2.03
2023-02-12T23:05:18.762Z,2.00
2023-02-12T23:07:47.344Z,2.00
2023-02-12T23:10:15.739Z,2.01
2023-02-12T23:12:47.136Z,2.01
2023-02-12T23:15:15.876Z,2.00
2023-02-12T23:17:47.683Z,1.99
2023-02-12T23:20:16.992Z,2.00
2023-02-12T23:22:47.435Z,1.97
2023-02-12T23:25:17.811Z,1.95
2023-02-12T23:27:46.640Z,1.91
2023-02-12T23:30:15.793Z,1.91
2023-02-12T23:32:44.486Z,1.92
2023-02-12T23:35:13.136Z,1.92
2023-02-12T23:37:41.545Z,1.94
2023-02-12T23:40:12.721Z,1.94
2023-02-12T23:42:41.391Z,1.95
2023-02-12T23:45:10.880Z,1.94
2023-02-12T23:47:39.466Z,1.94
2023-02-12T23:50:09.152Z,1.96
2023-02-12T23:52:37.631Z,1.98
2023-02-12T23:55:06.913Z,1.92
2023-02-12T23:57:37.307Z,1.93
